Time;durP1;ratioP1;P1;durP2;ratioP2;P2;SDS_P1;SDS_P2;PMS_P1;PMS_P2;Temp;Humidity;BMP_temperature;BMP_pressure;BME280_temperature;BME280_humidity;BME280_pressure;Samples;Min_cycle;Max_cycle;Signal;HPM_P1;HPM_P2
2022/09/13 00:01:41;;;;;;;19.75;15.55;;;17.40;99.90;;;;;;5096077;28;20048;-70
2022/09/13 00:04:06;;;;;;;25.20;17.70;;;17.40;99.90;;;;;;5096701;28;20058;-70
2022/09/13 00:06:32;;;;;;;24.70;17.38;;;17.40;99.90;;;;;;5097025;28;20036;-71
2022/09/13 00:08:59;;;;;;;22.30;16.38;;;17.40;99.90;;;;;;5097075;28;20420;-70
2022/09/13 00:11:28;;;;;;;21.65;16.92;;;17.40;99.90;;;;;;5079553;28;20055;-70
2022/09/13 00:13:55;;;;;;;25.70;18.42;;;17.40;99.90;;;;;;5096445;28;20515;-70
2022/09/13 00:16:23;;;;;;;27.80;20.08;;;17.40;99.90;;;;;;5096741;28;20036;-70
2022/09/13 00:18:50;;;;;;;21.77;17.67;;;17.30;99.90;;;;;;5096530;28;20089;-70
2022/09/13 00:21:18;;;;;;;25.33;18.70;;;17.40;99.90;;;;;;5096942;28;20050;-70
2022/09/13 00:23:49;;;;;;;22.30;17.65;;;17.40;99.90;;;;;;5096310;28;20048;-70
2022/09/13 00:26:18;;;;;;;26.35;19.08;;;17.40;99.90;;;;;;5096667;28;20119;-70
2022/09/13 00:28:44;;;;;;;29.55;20.92;;;17.40;99.90;;;;;;5096441;28;20044;-70
2022/09/13 00:31:10;;;;;;;25.00;18.90;;;17.40;99.90;;;;;;5075150;28;20049;-69
2022/09/13 00:33:36;;;;;;;21.17;17.17;;;17.40;99.90;;;;;;5088430;28;20079;-70
2022/09/13 00:36:07;;;;;;;26.48;18.50;;;17.30;99.90;;;;;;5096398;28;20407;-70
2022/09/13 00:38:40;;;;;;;25.67;17.90;;;17.40;99.90;;;;;;5096351;28;20416;-70
2022/09/13 00:41:11;;;;;;;26.38;19.45;;;17.40;99.90;;;;;;5096721;28;20405;-71
2022/09/13 00:43:53;;;;;;;39.38;20.92;;;17.40;99.90;;;;;;5096520;28;20044;-70
2022/09/13 00:46:22;;;;;;;22.30;17.45;;;17.30;99.90;;;;;;5096460;28;20083;-70
2022/09/13 00:48:49;;;;;;;25.98;18.88;;;17.30;99.90;;;;;;5095783;28;20056;-69
2022/09/13 00:51:15;;;;;;;29.77;20.38;;;17.30;99.90;;;;;;5095570;28;20168;-69
2022/09/13 00:53:47;;;;;;;28.83;21.33;;;17.40;99.90;;;;;;5096413;28;20047;-70
2022/09/13 00:56:23;;;;;;;28.90;20.33;;;17.40;99.90;;;;;;5096099;28;20054;-70
2022/09/13 00:58:54;;;;;;;25.40;17.25;;;17.30;99.90;;;;;;5096351;28;20044;-70
2022/09/13 01:01:24;;;;;;;24.75;17.58;;;17.30;99.90;;;;;;5095807;28;20063;-70
2022/09/13 01:03:50;;;;;;;29.08;19.63;;;17.30;99.90;;;;;;5096171;28;20044;-69
2022/09/13 01:06:21;;;;;;;29.60;20.05;;;17.40;99.90;;;;;;5095590;28;20460;-70
2022/09/13 01:08:51;;;;;;;23.58;17.83;;;17.40;99.90;;;;;;5095695;28;20062;-71
2022/09/13 01:11:28;;;;;;;22.40;17.08;;;17.40;99.90;;;;;;5095831;28;20367;-70
2022/09/13 01:13:54;;;;;;;25.73;19.58;;;17.40;99.90;;;;;;5094914;28;20063;-69
2022/09/13 01:16:20;;;;;;;24.50;18.05;;;17.30;99.90;;;;;;5095908;28;20040;-69
2022/09/13 01:18:46;;;;;;;22.10;16.27;;;17.40;99.90;;;;;;5096231;28;20097;-70
2022/09/13 01:21:30;;;;;;;22.40;16.38;;;17.40;99.90;;;;;;5095287;28;20055;-69
2022/09/13 01:24:10;;;;;;;23.75;17.42;;;17.40;99.90;;;;;;5095411;28;20451;-69
2022/09/13 01:27:13;;;;;;;23.42;15.88;;;17.40;99.90;;;;;;5095585;28;20385;-70
2022/09/13 01:30:15;;;;;;;18.92;13.60;;;17.40;99.90;;;;;;5095420;28;20036;-70
2022/09/13 01:32:41;;;;;;;22.77;15.57;;;17.30;99.90;;;;;;5095681;28;20104;-69
2022/09/13 01:35:17;;;;;;;17.80;14.00;;;17.30;99.90;;;;;;5094684;28;20056;-69
2022/09/13 01:37:53;;;;;;;20.55;15.10;;;17.30;99.90;;;;;;5095846;28;20336;-69
2022/09/13 01:40:51;;;;;;;29.55;17.60;;;17.30;99.90;;;;;;5094829;28;20043;-70
2022/09/13 01:43:35;;;;;;;20.45;14.60;;;17.30;99.90;;;;;;5050329;28;20426;-70
2022/09/13 01:46:17;;;;;;;17.90;14.00;;;17.30;99.90;;;;;;5095517;28;20097;-69
2022/09/13 01:49:07;;;;;;;19.15;13.52;;;17.20;99.90;;;;;;5095088;28;20097;-70
2022/09/13 01:51:40;;;;;;;19.92;14.32;;;17.30;99.90;;;;;;5094673;28;20040;-70
2022/09/13 01:54:09;;;;;;;26.52;15.95;;;17.30;99.90;;;;;;5095317;28;20040;-70
2022/09/13 01:56:52;;;;;;;18.80;13.52;;;17.30;99.90;;;;;;5095001;28;20056;-70
2022/09/13 01:59:53;;;;;;;17.87;14.00;;;17.30;99.90;;;;;;5095252;28;20059;-69
2022/09/13 02:02:24;;;;;;;21.33;13.95;;;17.20;99.90;;;;;;5095750;28;20274;-70
2022/09/13 02:04:54;;;;;;;17.85;13.55;;;17.20;99.90;;;;;;5094724;28;20126;-69
2022/09/13 02:07:35;;;;;;;19.58;14.73;;;17.20;99.90;;;;;;5094640;28;20059;-70
2022/09/13 02:10:19;;;;;;;22.60;15.35;;;17.20;99.90;;;;;;5095117;28;20089;-69
2022/09/13 02:12:48;;;;;;;23.27;14.55;;;17.20;99.90;;;;;;5094863;28;20105;-69
2022/09/13 02:15:30;;;;;;;23.88;16.20;;;17.10;99.90;;;;;;5094833;28;20452;-71
2022/09/13 02:18:11;;;;;;;19.42;12.65;;;17.20;99.90;;;;;;5095160;28;20121;-70
2022/09/13 02:20:42;;;;;;;18.30;14.05;;;17.20;99.90;;;;;;5094348;28;20056;-69
2022/09/13 02:23:19;;;;;;;21.33;13.63;;;17.20;99.90;;;;;;5094680;28;20048;-69
2022/09/13 02:25:48;;;;;;;17.67;13.63;;;17.20;99.90;;;;;;5096473;28;20040;-69
2022/09/13 02:28:19;;;;;;;18.63;13.80;;;17.10;99.90;;;;;;5098905;28;20144;-69
2022/09/13 02:30:50;;;;;;;19.67;14.70;;;17.10;99.90;;;;;;5098652;28;20118;-69
2022/09/13 02:33:29;;;;;;;16.33;12.50;;;17.00;99.90;;;;;;5099052;28;20406;-70
2022/09/13 02:36:01;;;;;;;22.67;15.52;;;17.10;99.90;;;;;;5097954;28;20529;-70
2022/09/13 02:38:31;;;;;;;18.52;12.30;;;17.10;99.90;;;;;;5098720;28;20052;-70
2022/09/13 02:41:08;;;;;;;19.83;14.00;;;17.00;99.90;;;;;;5098831;28;20448;-69
2022/09/13 02:43:40;;;;;;;18.58;13.30;;;17.00;99.90;;;;;;5098715;28;20395;-70
2022/09/13 02:46:32;;;;;;;22.98;14.48;;;17.00;99.90;;;;;;5098187;28;20474;-71
2022/09/13 02:49:18;;;;;;;20.77;14.98;;;16.90;99.90;;;;;;5085107;28;20048;-70
2022/09/13 02:51:51;;;;;;;25.38;16.30;;;16.90;99.90;;;;;;5083018;28;20040;-70
2022/09/13 02:54:28;;;;;;;21.25;14.65;;;16.90;99.90;;;;;;5098212;28;20123;-69
2022/09/13 02:57:03;;;;;;;26.60;18.55;;;16.90;99.90;;;;;;5098139;28;20062;-70
2022/09/13 02:59:29;;;;;;;26.05;17.60;;;16.90;99.90;;;;;;5098367;28;20472;-70
2022/09/13 03:02:01;;;;;;;30.20;19.02;;;17.00;99.90;;;;;;5098392;28;20066;-70
2022/09/13 03:04:28;;;;;;;25.52;16.73;;;16.90;99.90;;;;;;5098365;28;20535;-70
2022/09/13 03:06:54;;;;;;;27.67;18.13;;;16.90;99.90;;;;;;5097438;28;20466;-70
2022/09/13 03:09:20;;;;;;;26.75;17.90;;;16.90;99.90;;;;;;5098062;28;20043;-70
2022/09/13 03:11:45;;;;;;;26.13;18.95;;;17.00;99.90;;;;;;5098363;28;20098;-70
2022/09/13 03:14:21;;;;;;;29.50;19.33;;;17.00;99.90;;;;;;5080296;28;20087;-70
2022/09/13 03:17:11;;;;;;;23.35;16.45;;;17.00;99.90;;;;;;5097868;28;20126;-70
2022/09/13 03:20:07;;;;;;;23.52;15.55;;;17.00;99.90;;;;;;5097517;28;20032;-69
2022/09/13 03:22:38;;;;;;;21.42;15.23;;;17.00;99.90;;;;;;5097823;28;20095;-69
2022/09/13 03:25:24;;;;;;;33.50;21.67;;;17.00;99.90;;;;;;5097641;28;20050;-70
2022/09/13 03:28:04;;;;;;;35.40;21.67;;;17.10;99.90;;;;;;5097336;28;20048;-70
2022/09/13 03:30:34;;;;;;;30.23;19.67;;;17.10;99.90;;;;;;5097931;28;20114;-70
2022/09/13 03:33:15;;;;;;;25.45;17.20;;;17.10;99.90;;;;;;5097891;28;20153;-70
2022/09/13 03:35:54;;;;;;;24.08;17.17;;;17.10;99.90;;;;;;5097438;28;20144;-69
2022/09/13 03:38:41;;;;;;;31.60;20.20;;;17.20;99.90;;;;;;5096350;28;20063;-69
2022/09/13 03:41:21;;;;;;;39.30;22.63;;;17.20;99.90;;;;;;5079331;28;20043;-70
2022/09/13 03:43:54;;;;;;;29.05;19.70;;;17.20;99.90;;;;;;5097738;28;20048;-69
2022/09/13 03:46:26;;;;;;;29.27;20.63;;;17.20;99.90;;;;;;5097273;28;20406;-69
2022/09/13 03:48:53;;;;;;;22.05;16.77;;;17.20;99.90;;;;;;5097598;28;20051;-70
2022/09/13 03:51:19;;;;;;;32.05;20.15;;;17.30;99.90;;;;;;5097053;28;20514;-70
2022/09/13 03:53:57;;;;;;;30.25;19.38;;;17.30;99.90;;;;;;5097541;28;20079;-70
2022/09/13 03:56:23;;;;;;;29.60;19.48;;;17.30;99.90;;;;;;5096754;28;20058;-70
2022/09/13 03:58:49;;;;;;;25.02;16.45;;;17.30;99.90;;;;;;5096716;28;20456;-69
2022/09/13 04:01:21;;;;;;;20.48;14.27;;;17.30;99.90;;;;;;5097415;28;20032;-70
2022/09/13 04:03:47;;;;;;;15.93;13.20;;;17.30;99.90;;;;;;5076168;28;20051;-69
2022/09/13 04:06:13;;;;;;;16.50;11.52;;;17.40;99.90;;;;;;5096775;28;20036;-69
2022/09/13 04:08:39;;;;;;;14.43;10.73;;;17.30;99.90;;;;;;5097155;28;20048;-70
2022/09/13 04:11:04;;;;;;;12.35;8.32;;;17.30;99.90;;;;;;5096743;28;20351;-69
2022/09/13 04:13:30;;;;;;;10.48;8.23;;;17.30;99.90;;;;;;5096646;28;20089;-70
2022/09/13 04:16:01;;;;;;;11.90;8.10;;;17.40;99.90;;;;;;5096547;28;20056;-70
2022/09/13 04:18:27;;;;;;;11.05;7.38;;;17.40;99.90;;;;;;5096728;28;20040;-70
2022/09/13 04:20:54;;;;;;;14.45;7.55;;;17.40;99.90;;;;;;5096895;28;20078;-69
2022/09/13 04:23:21;;;;;;;12.20;7.82;;;17.40;99.90;;;;;;5096069;28;20338;-70
2022/09/13 04:25:46;;;;;;;23.13;8.30;;;17.40;99.90;;;;;;5096541;28;20101;-70
2022/09/13 04:28:12;;;;;;;13.65;8.00;;;17.40;99.90;;;;;;5096366;28;20134;-70
2022/09/13 04:30:37;;;;;;;17.77;9.05;;;17.30;99.90;;;;;;5096475;28;20040;-71
2022/09/13 04:33:03;;;;;;;11.85;7.30;;;17.40;99.90;;;;;;5095963;28;20070;-71
2022/09/13 04:35:29;;;;;;;14.05;8.07;;;17.30;99.90;;;;;;5096426;28;20143;-71
2022/09/13 04:37:56;;;;;;;10.73;7.05;;;17.40;99.90;;;;;;5095773;28;20058;-71
2022/09/13 04:40:22;;;;;;;12.77;8.50;;;17.30;99.90;;;;;;5095809;28;20051;-70
2022/09/13 04:42:48;;;;;;;11.85;8.25;;;17.30;99.90;;;;;;5096541;28;20047;-70
2022/09/13 04:45:14;;;;;;;11.88;7.85;;;17.30;99.90;;;;;;5096509;28;20441;-70
2022/09/13 04:47:39;;;;;;;11.80;7.20;;;17.40;99.90;;;;;;5096399;28;20051;-70
2022/09/13 04:50:06;;;;;;;9.30;5.90;;;17.30;99.90;;;;;;5096090;28;20052;-71
2022/09/13 04:52:32;;;;;;;9.70;6.18;;;17.30;99.90;;;;;;5095832;28;20040;-70
2022/09/13 04:55:00;;;;;;;9.93;6.70;;;17.30;99.90;;;;;;5095810;28;20036;-70
2022/09/13 04:57:27;;;;;;;11.35;7.03;;;17.30;99.90;;;;;;5095806;28;20048;-69
2022/09/13 04:59:52;;;;;;;10.05;6.18;;;17.30;99.90;;;;;;5095942;28;20040;-71
2022/09/13 05:02:18;;;;;;;9.50;5.97;;;17.30;99.90;;;;;;5095822;28;20047;-70
2022/09/13 05:04:43;;;;;;;9.77;5.63;;;17.20;99.90;;;;;;5095815;28;20047;-70
2022/09/13 05:07:09;;;;;;;10.20;5.45;;;17.30;99.90;;;;;;5095632;28;20051;-71
2022/09/13 05:09:34;;;;;;;6.93;4.55;;;17.30;99.90;;;;;;5095526;28;20052;-70
2022/09/13 05:12:00;;;;;;;9.55;4.70;;;17.30;99.90;;;;;;5095570;28;20083;-69
2022/09/13 05:14:26;;;;;;;8.52;4.60;;;17.30;99.90;;;;;;5095503;28;20444;-71
2022/09/13 05:16:51;;;;;;;8.60;4.30;;;17.30;99.90;;;;;;5095715;28;20364;-71
2022/09/13 05:19:17;;;;;;;8.27;4.72;;;17.30;99.90;;;;;;5095553;28;20044;-71
2022/09/13 05:21:42;;;;;;;8.45;4.03;;;17.30;99.90;;;;;;5095338;28;20399;-71
2022/09/13 05:24:08;;;;;;;7.15;3.90;;;17.30;99.90;;;;;;5095363;28;20051;-70
2022/09/13 05:26:34;;;;;;;8.52;3.80;;;17.30;99.90;;;;;;5094620;28;20040;-71
2022/09/13 05:29:00;;;;;;;8.48;3.60;;;17.30;99.90;;;;;;5095417;28;20126;-70
2022/09/13 05:31:32;;;;;;;10.20;3.58;;;17.40;99.90;;;;;;5095552;28;20071;-70
2022/09/13 05:34:03;;;;;;;12.48;4.43;;;17.30;99.90;;;;;;5095469;28;20371;-72
2022/09/13 05:36:29;;;;;;;6.28;3.22;;;17.30;99.90;;;;;;5095159;28;20048;-70
2022/09/13 05:38:56;;;;;;;8.07;3.45;;;17.40;99.90;;;;;;5095245;28;20123;-70
2022/09/13 05:41:21;;;;;;;4.82;2.67;;;17.30;99.90;;;;;;5094594;28;20048;-70
2022/09/13 05:43:47;;;;;;;5.97;2.58;;;17.40;99.90;;;;;;5094994;28;20043;-70
2022/09/13 05:46:15;;;;;;;6.07;2.85;;;17.30;99.90;;;;;;5095192;28;20044;-72
2022/09/13 05:48:41;;;;;;;7.18;3.03;;;17.30;99.90;;;;;;5095136;28;20044;-70
2022/09/13 05:51:09;;;;;;;7.03;2.58;;;17.30;99.90;;;;;;5095019;28;20471;-71
2022/09/13 05:53:36;;;;;;;5.82;2.13;;;17.30;99.90;;;;;;5078029;28;20111;-70
2022/09/13 05:56:02;;;;;;;6.57;2.78;;;17.30;99.90;;;;;;5095380;28;20115;-71
2022/09/13 05:58:28;;;;;;;6.38;2.63;;;17.20;99.90;;;;;;5094651;28;20512;-70
2022/09/13 06:00:55;;;;;;;7.30;2.55;;;17.20;99.90;;;;;;5094317;28;20051;-70
2022/09/13 06:03:21;;;;;;;5.40;2.53;;;17.30;99.90;;;;;;5095143;28;20059;-71
2022/09/13 06:05:47;;;;;;;5.82;2.10;;;17.30;99.90;;;;;;5095037;28;20123;-71
2022/09/13 06:08:13;;;;;;;8.07;2.53;;;17.20;99.90;;;;;;5059310;28;20127;-70
2022/09/13 06:10:39;;;;;;;5.75;2.38;;;17.30;99.90;;;;;;5094924;28;20360;-71
2022/09/13 06:13:04;;;;;;;6.18;2.40;;;17.20;99.90;;;;;;5094968;28;20458;-70
2022/09/13 06:15:30;;;;;;;7.18;2.45;;;17.20;99.90;;;;;;5094501;28;20040;-70
2022/09/13 06:17:55;;;;;;;5.45;2.80;;;17.20;99.90;;;;;;5094988;28;20052;-71
2022/09/13 06:20:22;;;;;;;7.07;2.50;;;17.20;99.90;;;;;;5094833;28;20399;-70
2022/09/13 06:22:48;;;;;;;5.78;2.22;;;17.20;99.90;;;;;;5094396;28;20458;-70
2022/09/13 06:25:14;;;;;;;6.68;2.47;;;17.20;99.90;;;;;;5094982;28;20040;-70
2022/09/13 06:27:39;;;;;;;6.28;2.35;;;17.20;99.90;;;;;;5094530;28;20475;-71
2022/09/13 06:30:07;;;;;;;3.95;1.73;;;17.30;99.90;;;;;;5094955;28;20169;-69
2022/09/13 06:32:34;;;;;;;8.20;2.00;;;17.30;99.90;;;;;;5094809;28;20127;-70
2022/09/13 06:34:59;;;;;;;6.90;2.20;;;17.30;99.90;;;;;;5094019;28;20048;-71
2022/09/13 06:37:25;;;;;;;6.38;2.50;;;17.30;99.90;;;;;;5094239;28;20334;-70
2022/09/13 06:39:50;;;;;;;5.28;2.05;;;17.40;99.90;;;;;;5094791;28;20125;-70
2022/09/13 06:42:17;;;;;;;4.93;2.40;;;17.40;99.90;;;;;;5094559;28;20048;-70
2022/09/13 06:44:44;;;;;;;7.35;2.50;;;17.50;99.90;;;;;;5094769;28;20174;-70
2022/09/13 06:47:10;;;;;;;6.22;2.47;;;17.70;99.90;;;;;;5076807;28;20137;-70
2022/09/13 06:49:36;;;;;;;5.15;2.28;;;17.70;99.90;;;;;;5094433;28;20047;-70
2022/09/13 06:52:02;;;;;;;8.20;2.22;;;17.80;99.90;;;;;;5094773;28;20048;-70
2022/09/13 06:54:28;;;;;;;5.85;2.13;;;17.80;99.90;;;;;;5094887;28;20032;-72
2022/09/13 06:56:53;;;;;;;5.55;2.17;;;17.90;99.90;;;;;;5094374;28;20044;-70
2022/09/13 06:59:19;;;;;;;8.80;2.20;;;18.00;99.90;;;;;;5094295;28;20468;-71
2022/09/13 07:01:45;;;;;;;6.95;2.20;;;18.00;99.90;;;;;;5094689;28;20044;-70
2022/09/13 07:04:18;;;;;;;6.88;1.90;;;18.30;99.90;;;;;;5094312;28;20444;-70
2022/09/13 07:06:46;;;;;;;8.60;3.00;;;18.30;99.90;;;;;;5094866;28;20119;-71
2022/09/13 07:09:18;;;;;;;6.80;2.15;;;18.40;99.90;;;;;;5094589;28;20048;-71
2022/09/13 07:11:45;;;;;;;10.48;2.90;;;18.60;99.90;;;;;;5094600;28;20044;-70
2022/09/13 07:14:16;;;;;;;7.57;2.05;;;18.80;99.90;;;;;;5097784;28;20047;-70
2022/09/13 07:16:42;;;;;;;6.43;2.10;;;18.90;99.90;;;;;;5097573;28;20036;-71
2022/09/13 07:19:21;;;;;;;8.15;2.00;;;18.90;99.90;;;;;;5098382;28;20449;-70
2022/09/13 07:21:48;;;;;;;7.68;1.98;;;18.90;99.90;;;;;;5097956;28;20048;-71
2022/09/13 07:24:15;;;;;;;9.18;2.10;;;19.20;99.90;;;;;;5097766;28;20360;-70
2022/09/13 07:26:41;;;;;;;7.30;1.80;;;19.20;99.90;;;;;;5097672;28;20110;-71
2022/09/13 07:29:10;;;;;;;5.10;1.77;;;19.30;99.90;;;;;;5097659;28;20050;-71
2022/09/13 07:31:38;;;;;;;6.38;1.83;;;19.30;99.90;;;;;;5097665;28;20073;-71
2022/09/13 07:34:07;;;;;;;5.00;1.35;;;19.30;99.90;;;;;;5097493;28;20059;-71
2022/09/13 07:36:34;;;;;;;6.57;1.60;;;19.40;99.90;;;;;;5097592;28;20052;-71
2022/09/13 07:39:00;;;;;;;8.13;1.70;;;19.40;99.90;;;;;;5097350;28;20131;-72
2022/09/13 07:41:27;;;;;;;6.25;1.70;;;19.30;99.90;;;;;;5096731;28;20040;-70
2022/09/13 07:43:53;;;;;;;7.65;1.60;;;19.50;99.90;;;;;;5097213;28;20036;-71
2022/09/13 07:46:24;;;;;;;6.68;1.77;;;19.50;99.90;;;;;;5097202;28;20127;-70
2022/09/13 07:48:53;;;;;;;5.90;1.50;;;19.50;99.90;;;;;;5097166;28;20044;-71
2022/09/13 07:51:21;;;;;;;3.88;1.15;;;19.40;99.90;;;;;;5097128;28;20047;-71
2022/09/13 07:53:48;;;;;;;6.28;1.10;;;19.40;99.90;;;;;;5097254;28;20093;-71
2022/09/13 07:56:17;;;;;;;6.28;1.35;;;19.20;99.90;;;;;;5096732;28;20122;-71
2022/09/13 07:58:44;;;;;;;6.43;1.70;;;19.30;99.90;;;;;;5097326;28;20055;-70
2022/09/13 08:01:20;;;;;;;6.28;1.58;;;19.20;99.90;;;;;;5097304;28;20040;-70
2022/09/13 08:03:59;;;;;;;4.47;1.00;;;19.20;99.90;;;;;;5096566;28;20043;-71
2022/09/13 08:06:26;;;;;;;4.82;1.27;;;19.20;99.90;;;;;;5097013;28;20395;-70
2022/09/13 08:08:53;;;;;;;10.23;1.50;;;19.30;99.90;;;;;;5096713;28;20061;-70
2022/09/13 08:11:24;;;;;;;5.88;1.15;;;19.30;99.90;;;;;;5096382;28;20105;-70
2022/09/13 08:13:51;;;;;;;6.70;1.33;;;19.20;99.90;;;;;;5096310;28;20055;-71
2022/09/13 08:16:17;;;;;;;6.00;1.20;;;19.10;99.90;;;;;;5096530;28;20044;-70
2022/09/13 08:18:45;;;;;;;4.88;1.17;;;19.10;99.90;;;;;;5096555;28;20459;-70
2022/09/13 08:21:11;;;;;;;9.18;1.60;;;18.90;99.90;;;;;;5096805;28;20040;-70
2022/09/13 08:23:36;;;;;;;6.43;1.75;;;19.00;99.90;;;;;;5096095;28;20082;-71
2022/09/13 08:26:02;;;;;;;7.13;1.42;;;18.90;99.90;;;;;;5096401;28;20040;-70
2022/09/13 08:28:30;;;;;;;2.75;0.73;;;19.00;99.90;;;;;;5096357;28;20040;-70
2022/09/13 08:30:56;;;;;;;6.35;1.20;;;18.90;99.90;;;;;;5096040;28;20110;-70
2022/09/13 08:33:21;;;;;;;5.22;1.42;;;18.90;99.90;;;;;;5095920;28;20403;-70
2022/09/13 08:35:51;;;;;;;7.38;1.40;;;18.80;99.90;;;;;;5096276;28;20058;-70
2022/09/13 08:38:17;;;;;;;3.10;0.98;;;18.90;99.90;;;;;;5095992;28;20108;-70
2022/09/13 08:40:52;;;;;;;6.32;1.20;;;19.00;99.90;;;;;;5096037;28;20093;-71
2022/09/13 08:43:52;;;;;;;7.25;1.30;;;19.00;99.90;;;;;;5096180;28;20055;-71
2022/09/13 08:46:25;;;;;;;5.85;1.05;;;19.20;99.90;;;;;;5096304;28;20333;-71
2022/09/13 08:48:54;;;;;;;7.47;1.20;;;19.40;99.90;;;;;;5096343;28;20044;-71
2022/09/13 08:51:31;;;;;;;4.85;1.08;;;19.40;99.90;;;;;;5095727;28;20490;-71
2022/09/13 08:53:58;;;;;;;9.25;1.70;;;19.60;99.90;;;;;;5096016;28;20040;-70
2022/09/13 08:56:54;;;;;;;7.47;1.30;;;19.70;99.90;;;;;;5095685;28;20105;-71
2022/09/13 08:59:32;;;;;;;8.32;1.30;;;19.80;99.90;;;;;;5053522;28;20415;-71
2022/09/13 09:02:31;;;;;;;8.20;1.20;;;19.70;99.90;;;;;;5096070;28;20424;-70
2022/09/13 09:05:03;;;;;;;7.22;1.20;;;19.70;99.90;;;;;;5096039;28;20044;-71
2022/09/13 09:07:35;;;;;;;6.38;1.77;;;19.70;99.90;;;;;;5096482;28;20058;-70
2022/09/13 09:10:24;;;;;;;5.43;1.33;;;19.60;99.90;;;;;;5096227;28;20052;-71
2022/09/13 09:13:02;;;;;;;16.05;1.35;;;19.70;99.90;;;;;;5095812;28;20274;-70
2022/09/13 09:15:39;;;;;;;8.32;1.40;;;19.80;99.90;;;;;;5088752;28;20048;-71
2022/09/13 09:18:22;;;;;;;7.25;1.25;;;20.00;99.90;;;;;;5095432;28;20094;-70
2022/09/13 09:20:52;;;;;;;4.78;1.35;;;20.20;99.90;;;;;;5095938;28;20048;-70
2022/09/13 09:23:25;;;;;;;6.03;1.20;;;20.50;99.90;;;;;;5095573;28;20140;-71
2022/09/13 09:25:56;;;;;;;9.10;1.48;;;20.90;99.90;;;;;;5095469;28;20052;-71
2022/09/13 09:28:22;;;;;;;6.07;0.93;;;21.60;99.90;;;;;;5076845;28;20048;-71
2022/09/13 09:31:14;;;;;;;7.53;1.15;;;21.80;99.90;;;;;;5095278;28;20055;-70
2022/09/13 09:34:03;;;;;;;6.60;1.20;;;21.50;99.90;;;;;;5094970;28;20051;-71
2022/09/13 09:36:45;;;;;;;6.00;1.45;;;21.20;99.90;;;;;;5032587;28;20063;-71
2022/09/13 09:39:12;;;;;;;7.78;1.83;;;21.00;99.90;;;;;;5074804;28;20082;-71
2022/09/13 09:41:38;;;;;;;5.55;1.42;;;20.80;99.90;;;;;;5074929;28;20040;-71
2022/09/13 09:44:24;;;;;;;6.82;1.33;;;20.70;99.90;;;;;;5075105;28;20464;-71
2022/09/13 09:46:55;;;;;;;6.00;1.35;;;20.60;99.90;;;;;;5075055;28;20071;-72
2022/09/13 09:52:49;;;;;;;4.80;1.40;;;20.30;99.90;;;;;;5075037;28;20464;-71
2022/09/13 09:55:30;;;;;;;6.13;1.23;;;20.20;99.90;;;;;;5057378;28;20044;-71
2022/09/13 09:58:05;;;;;;;3.92;1.08;;;20.10;99.90;;;;;;5074856;28;20045;-71
2022/09/13 10:00:36;;;;;;;5.18;1.20;;;20.10;99.90;;;;;;5074878;28;20047;-71
2022/09/13 10:03:06;;;;;;;7.93;1.52;;;20.20;99.90;;;;;;5075695;28;20045;-71
2022/09/13 10:05:34;;;;;;;5.97;1.23;;;20.20;99.90;;;;;;5094811;28;20048;-71
2022/09/13 10:08:04;;;;;;;5.90;1.13;;;20.50;99.90;;;;;;5094649;28;20040;-71
2022/09/13 10:10:41;;;;;;;4.85;1.13;;;20.60;99.90;;;;;;5094748;28;20048;-71
2022/09/13 10:13:15;;;;;;;8.02;1.30;;;20.60;99.90;;;;;;5094440;28;20048;-70
2022/09/13 10:16:11;;;;;;;4.57;1.00;;;20.70;99.90;;;;;;5094659;28;20072;-72
2022/09/13 10:18:37;;;;;;;8.57;1.52;;;20.70;99.90;;;;;;5080874;28;20048;-72
2022/09/13 10:21:25;;;;;;;3.92;1.00;;;20.60;99.90;;;;;;5076912;28;20080;-71
2022/09/13 10:23:52;;;;;;;4.40;1.00;;;20.50;99.90;;;;;;5094657;28;20506;-71
2022/09/13 10:26:22;;;;;;;7.10;1.30;;;20.60;99.90;;;;;;5094624;28;20048;-71
2022/09/13 10:29:00;;;;;;;5.10;1.38;;;20.50;99.90;;;;;;5094075;28;20040;-71
2022/09/13 10:31:30;;;;;;;6.10;1.42;;;20.60;99.90;;;;;;5095067;28;20083;-71
2022/09/13 10:33:59;;;;;;;8.10;1.65;;;20.80;99.90;;;;;;5095146;28;20387;-71
2022/09/13 10:36:31;;;;;;;6.88;1.75;;;20.90;99.90;;;;;;5094164;28;20055;-71
2022/09/13 10:39:01;;;;;;;8.50;1.67;;;20.90;99.90;;;;;;5094817;28;20440;-71
2022/09/13 10:41:31;;;;;;;7.55;1.40;;;20.90;99.90;;;;;;5093965;28;20040;-72
2022/09/13 10:43:58;;;;;;;6.32;1.38;;;20.80;99.90;;;;;;5094882;28;20055;-71
2022/09/13 10:46:27;;;;;;;3.55;0.98;;;20.80;99.90;;;;;;5096057;28;20040;-71
2022/09/13 10:48:56;;;;;;;8.65;1.48;;;20.90;99.90;;;;;;5098409;28;20444;-71
2022/09/13 10:51:34;;;;;;;7.25;1.35;;;21.20;99.90;;;;;;5098245;28;20086;-72
2022/09/13 10:54:21;;;;;;;5.07;1.20;;;21.40;99.90;;;;;;5097791;28;20123;-72
2022/09/13 10:56:47;;;;;;;5.43;1.33;;;21.30;99.90;;;;;;5097848;28;20123;-72
2022/09/13 10:59:28;;;;;;;6.30;1.27;;;21.20;99.90;;;;;;5098438;28;20048;-72
2022/09/13 11:02:31;;;;;;;6.72;1.50;;;21.10;99.90;;;;;;5097925;28;20368;-71
2022/09/13 11:05:18;;;;;;;6.55;1.00;;;21.10;99.90;;;;;;5098260;28;20040;-71
2022/09/13 11:07:55;;;;;;;13.00;1.88;;;21.10;99.90;;;;;;5098238;28;20056;-72
2022/09/13 11:10:48;;;;;;;6.63;1.17;;;21.20;99.90;;;;;;5097632;28;20460;-72
2022/09/13 11:13:39;;;;;;;5.90;1.20;;;21.40;99.90;;;;;;5098277;28;20131;-73
2022/09/13 11:16:16;;;;;;;5.88;1.02;;;21.70;99.90;;;;;;5098163;28;20044;-72
2022/09/13 11:19:09;;;;;;;4.60;1.05;;;21.80;99.90;;;;;;5097932;28;20047;-71
2022/09/13 11:22:05;;;;;;;4.80;1.43;;;21.70;99.90;;;;;;5097864;28;20134;-71
2022/09/13 11:24:55;;;;;;;5.63;1.42;;;21.60;99.90;;;;;;5080021;28;20052;-72
2022/09/13 11:27:54;;;;;;;6.80;0.90;;;21.70;99.90;;;;;;5097830;28;20101;-71
2022/09/13 11:30:22;;;;;;;9.32;1.20;;;21.70;99.90;;;;;;5097813;28;20051;-72
2022/09/13 11:33:20;;;;;;;7.38;1.30;;;21.80;99.90;;;;;;5098292;28;20052;-72
2022/09/13 11:36:03;;;;;;;10.05;1.48;;;22.10;99.90;;;;;;5097828;28;20052;-72
2022/09/13 11:38:34;;;;;;;5.13;1.10;;;22.30;98.90;;;;;;5097404;28;20052;-72
2022/09/13 11:41:16;;;;;;;4.07;0.90;;;22.30;98.50;;;;;;5096923;28;20368;-72
2022/09/13 11:44:06;;;;;;;5.65;1.38;;;22.20;98.70;;;;;;5097332;28;20040;-72
2022/09/13 11:47:02;;;;;;;3.90;1.08;;;22.00;98.70;;;;;;5097680;28;20055;-72
2022/09/13 11:49:51;;;;;;;6.57;1.10;;;21.90;98.90;;;;;;5079575;28;20519;-72
2022/09/13 11:52:56;;;;;;;5.35;1.20;;;22.00;99.20;;;;;;5096917;28;20044;-71
2022/09/13 11:55:26;;;;;;;7.88;1.20;;;22.10;97.30;;;;;;5096906;28;20109;-72
2022/09/13 11:57:55;;;;;;;5.85;1.08;;;22.00;97.90;;;;;;5096265;28;20050;-71
2022/09/13 12:00:29;;;;;;;4.88;1.08;;;22.10;98.30;;;;;;5096450;28;20098;-71
2022/09/13 12:03:14;;;;;;;4.13;1.15;;;22.20;98.90;;;;;;5096966;28;20039;-72
2022/09/13 12:05:53;;;;;;;5.15;1.10;;;22.20;97.60;;;;;;5096842;28;20044;-71
2022/09/13 12:08:24;;;;;;;6.10;1.40;;;22.10;97.80;;;;;;5096866;28;20055;-72
2022/09/13 12:10:56;;;;;;;4.90;0.98;;;22.00;98.80;;;;;;5096751;28;20070;-72
2022/09/13 12:13:57;;;;;;;7.30;1.30;;;22.00;97.90;;;;;;5097190;28;20360;-71
2022/09/13 12:16:33;;;;;;;3.20;0.90;;;22.00;98.90;;;;;;5091789;28;20131;-71
2022/09/13 12:19:03;;;;;;;3.55;1.10;;;21.90;98.80;;;;;;5096759;28;20036;-73
2022/09/13 12:21:36;;;;;;;5.75;1.38;;;22.10;98.90;;;;;;5096950;28;20120;-73
2022/09/13 12:24:10;;;;;;;5.18;1.02;;;22.30;98.90;;;;;;5096210;28;20464;-72
2022/09/13 12:26:56;;;;;;;6.32;1.10;;;22.10;97.80;;;;;;5096282;28;20044;-73
2022/09/13 12:29:29;;;;;;;7.47;1.45;;;22.00;98.30;;;;;;5096443;28;20059;-72
2022/09/13 12:31:59;;;;;;;4.38;1.00;;;21.80;98.30;;;;;;5096256;28;20048;-72
2022/09/13 12:34:45;;;;;;;6.90;1.85;;;21.60;98.90;;;;;;5096294;28;20055;-72
2022/09/13 12:37:48;;;;;;;5.13;1.17;;;21.70;98.10;;;;;;5096114;28;20048;-71
2022/09/13 12:40:17;;;;;;;5.23;1.30;;;21.60;98.50;;;;;;5096115;28;20044;-72
2022/09/13 12:43:07;;;;;;;6.28;1.45;;;21.60;98.70;;;;;;5096009;28;20510;-72
2022/09/13 12:46:01;;;;;;;9.35;1.45;;;21.60;98.70;;;;;;5096260;28;20478;-73
2022/09/13 12:48:26;;;;;;;;;;;21.60;98.10;;;;;;5096486;28;20133;-72
2022/09/13 12:51:07;;;;;;;7.22;1.13;;;21.60;98.30;;;;;;5096469;28;19928;-72
2022/09/13 12:53:51;;;;;;;7.05;1.40;;;21.50;98.80;;;;;;5096040;28;20086;-72
2022/09/13 12:56:41;;;;;;;6.15;1.10;;;21.50;98.60;;;;;;5096197;28;20096;-72
2022/09/13 12:59:37;;;;;;;6.40;1.35;;;21.60;98.30;;;;;;5076043;28;20048;-72
2022/09/13 13:02:26;;;;;;;3.67;1.08;;;21.60;97.60;;;;;;5076122;28;20044;-73
2022/09/13 13:04:57;;;;;;;8.55;1.40;;;21.60;98.10;;;;;;5076013;28;20116;-72
2022/09/13 13:07:23;;;;;;;5.70;1.17;;;21.60;98.30;;;;;;5095649;28;20044;-72
2022/09/13 13:09:52;;;;;;;2.92;0.90;;;21.70;99.00;;;;;;5096023;28;20040;-72
2022/09/13 13:12:33;;;;;;;5.35;1.20;;;21.80;98.90;;;;;;5095749;28;20044;-71
2022/09/13 13:15:04;;;;;;;5.68;1.23;;;21.90;97.60;;;;;;5095806;28;20098;-72